createdAt,value
2024-03-12T00:01:42.114Z,41.75
2024-03-12T00:04:09.710Z,42.80
2024-03-12T00:06:37.794Z,42.42
2024-03-12T00:09:07.559Z,43.30
2024-03-12T00:11:35.747Z,42.17
2024-03-12T00:14:03.378Z,41.67
2024-03-12T00:16:34.345Z,42.42
2024-03-12T00:19:02.381Z,43.15
2024-03-12T00:21:30.450Z,42.30
2024-03-12T00:23:59.719Z,43.40
2024-03-12T00:26:26.963Z,42.13
2024-03-12T00:28:53.969Z,43.90
2024-03-12T00:31:22.022Z,43.00
2024-03-12T00:33:49.684Z,44.65
2024-03-12T00:36:17.990Z,44.55
2024-03-12T00:38:45.105Z,45.67
2024-03-12T00:41:12.368Z,45.28
2024-03-12T00:43:39.599Z,44.85
2024-03-12T00:46:06.998Z,46.28
2024-03-12T00:48:34.139Z,45.80
2024-03-12T00:51:01.402Z,46.95
2024-03-12T00:53:28.618Z,47.25
2024-03-12T00:55:55.821Z,48.33
2024-03-12T00:58:24.680Z,47.95
2024-03-12T01:00:54.519Z,47.10
2024-03-12T01:03:22.031Z,48.05
2024-03-12T01:05:49.784Z,49.28
2024-03-12T01:08:16.956Z,50.13
2024-03-12T01:10:44.372Z,47.75
2024-03-12T01:13:12.388Z,49.30
2024-03-12T01:15:41.292Z,49.25
2024-03-12T01:18:09.768Z,49.67
2024-03-12T01:20:37.669Z,49.45
2024-03-12T01:23:08.504Z,50.25
2024-03-12T01:25:38.093Z,51.38
2024-03-12T01:28:07.528Z,49.70
2024-03-12T01:30:36.320Z,50.10
2024-03-12T01:33:06.885Z,49.20
2024-03-12T01:35:40.134Z,47.97
2024-03-12T01:38:09.998Z,49.60
2024-03-12T01:40:37.549Z,48.45
2024-03-12T01:43:05.217Z,47.22
2024-03-12T01:45:37.119Z,46.03
2024-03-12T01:48:12.350Z,46.38
2024-03-12T01:50:40.785Z,44.90
2024-03-12T01:53:09.691Z,43.40
2024-03-12T01:55:39.246Z,44.65
2024-03-12T01:58:06.745Z,42.60
2024-03-12T02:00:34.845Z,43.35
2024-03-12T02:03:02.883Z,43.22
2024-03-12T02:05:30.120Z,42.42
2024-03-12T02:07:57.970Z,41.92
2024-03-12T02:10:26.201Z,41.63
2024-03-12T02:12:53.668Z,41.88
2024-03-12T02:15:24.223Z,40.90
2024-03-12T02:17:54.607Z,41.50
2024-03-12T02:20:23.250Z,40.45
2024-03-12T02:22:55.575Z,42.33
2024-03-12T02:25:24.400Z,43.20
2024-03-12T02:27:54.238Z,44.30
2024-03-12T02:30:22.602Z,43.35
2024-03-12T02:32:50.646Z,45.80
2024-03-12T02:35:18.451Z,46.95
2024-03-12T02:37:46.483Z,48.50
2024-03-12T02:40:15.212Z,47.15
2024-03-12T02:42:43.738Z,47.13
2024-03-12T02:45:16.247Z,47.15
2024-03-12T02:47:45.254Z,45.47
2024-03-12T02:50:12.731Z,47.97
2024-03-12T02:52:40.075Z,47.67
2024-03-12T02:55:08.033Z,48.05
2024-03-12T02:57:35.753Z,48.03
2024-03-12T03:00:12.432Z,47.97
2024-03-12T03:02:39.810Z,47.33
2024-03-12T03:05:08.493Z,48.33
2024-03-12T03:07:36.768Z,47.58
2024-03-12T03:10:07.517Z,47.22
2024-03-12T03:12:34.680Z,48.05
2024-03-12T03:15:01.720Z,47.15
2024-03-12T03:17:28.773Z,48.92
2024-03-12T03:19:55.792Z,48.28
2024-03-12T03:22:22.854Z,49.03
2024-03-12T03:24:51.000Z,48.83
2024-03-12T03:27:18.181Z,48.92
2024-03-12T03:29:45.750Z,48.83
2024-03-12T03:32:12.969Z,49.70
2024-03-12T03:34:40.145Z,49.95
2024-03-12T03:37:08.122Z,49.40
2024-03-12T03:39:38.186Z,52.35
2024-03-12T03:42:05.700Z,51.50
2024-03-12T03:44:32.740Z,49.67
2024-03-12T03:46:59.939Z,50.08
2024-03-12T03:49:26.969Z,50.45
2024-03-12T03:51:54.694Z,50.22
2024-03-12T03:54:22.143Z,50.92
2024-03-12T03:56:49.388Z,52.88
2024-03-12T03:59:17.132Z,53.05
2024-03-12T04:01:44.800Z,52.60
2024-03-12T04:04:14.247Z,53.25
2024-03-12T04:06:45.038Z,53.17
2024-03-12T04:09:13.023Z,54.35
2024-03-12T04:11:42.365Z,53.60
2024-03-12T04:14:10.252Z,55.45
2024-03-12T04:16:37.401Z,53.20
2024-03-12T04:19:06.113Z,52.15
2024-03-12T04:21:33.587Z,51.67
2024-03-12T04:24:01.382Z,51.72
2024-03-12T04:26:30.428Z,50.97
2024-03-12T04:28:58.306Z,48.88
2024-03-12T04:31:26.840Z,47.40
2024-03-12T04:33:54.517Z,47.35
2024-03-12T04:36:24.659Z,48.78
2024-03-12T04:38:51.949Z,48.42
2024-03-12T04:41:21.613Z,46.83
2024-03-12T04:43:49.692Z,47.28
2024-03-12T04:46:16.940Z,49.15
2024-03-12T04:48:46.278Z,47.78
2024-03-12T04:51:15.362Z,47.95
2024-03-12T04:53:42.756Z,47.70
2024-03-12T04:56:09.898Z,48.33
2024-03-12T04:58:38.018Z,47.67
2024-03-12T05:01:07.430Z,46.65
2024-03-12T05:03:35.827Z,46.70
2024-03-12T05:06:03.358Z,46.78
2024-03-12T05:08:30.438Z,46.50
2024-03-12T05:10:59.636Z,45.08
2024-03-12T05:13:28.281Z,46.10
2024-03-12T05:15:55.375Z,46.53
2024-03-12T05:18:22.525Z,46.00
2024-03-12T05:20:52.185Z,46.78
2024-03-12T05:23:19.484Z,45.30
2024-03-12T05:25:47.763Z,46.20
2024-03-12T05:28:15.102Z,47.05
2024-03-12T05:30:43.617Z,47.63
2024-03-12T05:33:13.370Z,44.50
2024-03-12T05:35:48.305Z,47.00
2024-03-12T05:38:34.954Z,46.33
2024-03-12T05:41:11.186Z,46.67
2024-03-12T05:43:57.264Z,46.33
2024-03-12T05:46:44.949Z,45.92
2024-03-12T05:49:12.650Z,46.95
2024-03-12T05:51:40.130Z,46.67
2024-03-12T05:54:07.668Z,45.30
2024-03-12T05:56:36.409Z,45.92
2024-03-12T05:59:03.787Z,46.35
2024-03-12T06:01:32.316Z,46.22
2024-03-12T06:03:59.859Z,46.35
2024-03-12T06:06:27.829Z,45.92
2024-03-12T06:08:54.988Z,46.88
2024-03-12T06:11:22.190Z,46.08
2024-03-12T06:13:49.263Z,46.47
2024-03-12T06:16:19.954Z,45.40
2024-03-12T06:18:47.311Z,44.60
2024-03-12T06:21:14.396Z,45.40
2024-03-12T06:23:41.889Z,45.53
2024-03-12T06:26:09.094Z,44.67
2024-03-12T06:28:37.107Z,44.83
2024-03-12T06:31:05.288Z,43.83
2024-03-12T06:33:33.560Z,44.28
2024-03-12T06:36:01.003Z,44.05
2024-03-12T06:38:28.136Z,44.53
2024-03-12T06:40:55.233Z,45.28
2024-03-12T06:43:23.310Z,44.67
2024-03-12T06:45:50.796Z,43.72
2024-03-12T06:48:20.533Z,44.38
2024-03-12T06:50:47.816Z,45.25
2024-03-12T06:53:16.239Z,45.17
2024-03-12T06:55:43.881Z,44.95
2024-03-12T06:58:13.251Z,46.47
2024-03-12T07:00:46.320Z,45.38
2024-03-12T07:03:15.623Z,46.65
2024-03-12T07:05:48.660Z,45.45
2024-03-12T07:08:18.751Z,46.88
2024-03-12T07:10:46.868Z,47.38
2024-03-12T07:13:14.671Z,46.10
2024-03-12T07:15:43.753Z,47.08
2024-03-12T07:18:11.316Z,47.70
2024-03-12T07:20:38.830Z,49.15
2024-03-12T07:23:06.941Z,49.10
2024-03-12T07:25:34.733Z,48.88
2024-03-12T07:28:07.382Z,49.33
2024-03-12T07:30:36.216Z,49.67
2024-03-12T07:33:04.458Z,50.95
2024-03-12T07:35:35.545Z,51.25
2024-03-12T07:38:04.616Z,53.00
2024-03-12T07:40:33.376Z,54.72
2024-03-12T07:43:00.960Z,54.38
2024-03-12T07:45:29.117Z,53.75
2024-03-12T07:47:57.422Z,53.45
2024-03-12T07:50:29.884Z,54.08
2024-03-12T07:52:57.368Z,51.88
2024-03-12T07:55:25.292Z,50.40
2024-03-12T07:57:52.392Z,48.22
2024-03-12T08:00:20.498Z,48.75
2024-03-12T08:02:47.913Z,49.83
2024-03-12T08:05:15.081Z,48.10
2024-03-12T08:07:45.416Z,46.33
2024-03-12T08:10:13.526Z,44.83
2024-03-12T08:12:41.414Z,43.17
2024-03-12T08:15:14.250Z,41.00
2024-03-12T08:17:41.872Z,38.28
2024-03-12T08:20:14.845Z,39.38
2024-03-12T08:22:42.164Z,36.70
2024-03-12T08:25:12.264Z,34.15
2024-03-12T08:27:42.730Z,34.65
2024-03-12T08:30:10.663Z,34.28
2024-03-12T08:32:37.948Z,32.33
2024-03-12T08:35:06.400Z,31.98
2024-03-12T08:37:37.618Z,32.70
2024-03-12T08:40:08.826Z,30.75
2024-03-12T08:42:44.636Z,30.23
2024-03-12T08:45:20.627Z,29.23
2024-03-12T08:47:49.695Z,28.17
2024-03-12T08:50:18.250Z,26.70
2024-03-12T08:52:45.373Z,23.10
2024-03-12T08:55:12.526Z,23.00
2024-03-12T08:57:40.067Z,20.63
2024-03-12T09:00:13.421Z,20.05
2024-03-12T09:02:40.973Z,20.45
2024-03-12T09:05:08.952Z,19.83
2024-03-12T09:07:39.263Z,17.85
2024-03-12T09:10:12.449Z,17.40
2024-03-12T09:12:42.142Z,17.75
2024-03-12T09:15:10.711Z,17.55
2024-03-12T09:17:39.827Z,17.75
2024-03-12T09:20:11.495Z,17.33
2024-03-12T09:22:39.264Z,18.13
2024-03-12T09:25:07.528Z,18.00
2024-03-12T09:27:35.147Z,17.63
2024-03-12T09:30:04.387Z,16.02
2024-03-12T09:32:31.506Z,14.82
2024-03-12T09:34:59.142Z,13.85
2024-03-12T09:37:28.341Z,13.60
2024-03-12T09:39:55.596Z,13.93
2024-03-12T09:42:27.132Z,14.38
2024-03-12T09:44:54.853Z,13.95
2024-03-12T09:47:22.191Z,13.50
2024-03-12T09:49:50.294Z,14.05
2024-03-12T09:52:17.693Z,14.15
2024-03-12T09:54:45.737Z,14.07
2024-03-12T09:57:13.889Z,13.77
2024-03-12T09:59:41.538Z,13.00
2024-03-12T10:02:13.406Z,13.70
2024-03-12T10:04:40.573Z,12.93
2024-03-12T10:07:08.153Z,13.45
2024-03-12T10:09:35.473Z,14.40
2024-03-12T10:12:03.456Z,13.40
2024-03-12T10:14:34.946Z,13.40
2024-03-12T10:17:15.609Z,14.30
2024-03-12T10:19:50.092Z,14.88
2024-03-12T10:22:22.577Z,15.90
2024-03-12T10:24:50.645Z,16.48
2024-03-12T10:27:17.906Z,16.65
2024-03-12T10:29:45.547Z,16.38
2024-03-12T10:32:29.152Z,17.60
2024-03-12T10:34:57.316Z,18.05
2024-03-12T10:37:33.495Z,17.85
2024-03-12T10:40:21.906Z,18.55
2024-03-12T10:42:59.077Z,18.33
2024-03-12T10:45:28.352Z,17.90
2024-03-12T10:47:57.901Z,18.90
2024-03-12T10:50:26.929Z,19.90
2024-03-12T10:52:55.985Z,19.92
2024-03-12T10:55:23.677Z,20.35
2024-03-12T10:57:56.065Z,21.23
2024-03-12T11:00:27.082Z,20.35
2024-03-12T11:02:55.343Z,20.20
2024-03-12T11:05:28.315Z,20.23
2024-03-12T11:07:58.954Z,21.77
2024-03-12T11:10:31.629Z,22.23
2024-03-12T11:13:03.393Z,22.58
2024-03-12T11:15:32.762Z,23.17
2024-03-12T11:18:00.023Z,23.85
2024-03-12T11:20:29.036Z,24.77
2024-03-12T11:23:02.121Z,24.60
2024-03-12T11:25:49.650Z,24.75
2024-03-12T11:28:27.513Z,26.02
2024-03-12T11:31:05.624Z,26.60
2024-03-12T11:33:47.240Z,24.17
2024-03-12T11:36:42.574Z,23.80
2024-03-12T11:39:15.945Z,24.90
2024-03-12T11:42:07.123Z,23.45
2024-03-12T11:44:54.575Z,23.60
2024-03-12T11:47:41.335Z,23.00
2024-03-12T11:50:35.829Z,22.20
2024-03-12T11:53:21.510Z,22.25
2024-03-12T11:56:09.021Z,23.10
2024-03-12T11:58:49.357Z,22.40
2024-03-12T12:01:40.193Z,21.42
2024-03-12T12:04:13.610Z,21.75
2024-03-12T12:06:40.873Z,21.42
2024-03-12T12:09:10.432Z,21.75
2024-03-12T12:11:41.782Z,21.42
2024-03-12T12:14:10.896Z,21.63
2024-03-12T12:16:39.563Z,21.23
2024-03-12T12:19:13.472Z,20.60
2024-03-12T12:21:44.240Z,21.67
2024-03-12T12:24:12.514Z,20.90
2024-03-12T12:26:40.294Z,21.20
2024-03-12T12:29:10.847Z,20.25
2024-03-12T12:31:38.815Z,20.65
2024-03-12T12:34:07.856Z,21.15
2024-03-12T12:36:41.878Z,20.38
2024-03-12T12:39:11.855Z,20.85
2024-03-12T12:41:44.953Z,21.73
2024-03-12T12:44:23.237Z,19.58
2024-03-12T12:46:54.092Z,20.52
2024-03-12T12:49:22.582Z,19.95
2024-03-12T12:51:51.605Z,21.55
2024-03-12T12:54:22.904Z,20.80
2024-03-12T12:56:51.691Z,21.60
2024-03-12T12:59:23.011Z,21.88
2024-03-12T13:01:51.040Z,21.20
2024-03-12T13:04:28.315Z,21.67
2024-03-12T13:06:58.251Z,21.55
2024-03-12T13:09:35.163Z,22.75
2024-03-12T13:12:08.777Z,22.13
2024-03-12T13:14:39.247Z,23.05
2024-03-12T13:17:10.093Z,22.60
2024-03-12T13:19:37.814Z,23.08
2024-03-12T13:22:10.662Z,22.98
2024-03-12T13:24:45.022Z,22.83
2024-03-12T13:27:14.515Z,22.95
2024-03-12T13:29:44.420Z,22.98
2024-03-12T13:32:11.638Z,21.00
2024-03-12T13:34:38.962Z,20.63
2024-03-12T13:37:08.423Z,20.17
2024-03-12T13:39:35.918Z,19.52
2024-03-12T13:42:06.735Z,19.42
2024-03-12T13:44:34.320Z,17.35
2024-03-12T13:47:04.148Z,17.23
2024-03-12T13:49:31.369Z,16.88
2024-03-12T13:51:59.665Z,16.77
2024-03-12T13:54:28.386Z,16.67
2024-03-12T13:56:56.073Z,16.70
2024-03-12T13:59:23.478Z,16.63
2024-03-12T14:01:50.877Z,16.98
2024-03-12T14:04:18.674Z,17.10
2024-03-12T14:06:47.637Z,17.27
2024-03-12T14:09:16.189Z,17.00
2024-03-12T14:11:43.589Z,17.42
2024-03-12T14:14:10.949Z,18.58
2024-03-12T14:16:38.197Z,18.23
2024-03-12T14:19:05.528Z,18.77
2024-03-12T14:21:34.127Z,18.23
2024-03-12T14:24:03.874Z,18.17
2024-03-12T14:26:31.130Z,18.40
2024-03-12T14:28:58.199Z,18.85
2024-03-12T14:31:26.197Z,18.30
2024-03-12T14:33:53.466Z,18.23
2024-03-12T14:36:20.872Z,18.48
2024-03-12T14:38:50.858Z,18.17
2024-03-12T14:41:21.689Z,18.88
2024-03-12T14:43:48.849Z,18.48
2024-03-12T14:46:18.622Z,17.95
2024-03-12T14:48:46.040Z,18.75
2024-03-12T14:51:13.285Z,18.77
2024-03-12T14:53:40.828Z,18.10
2024-03-12T14:56:08.185Z,17.85
2024-03-12T14:58:35.446Z,18.45
2024-03-12T15:01:02.978Z,17.92
2024-03-12T15:03:31.657Z,18.50
2024-03-12T15:05:58.880Z,17.77
2024-03-12T15:08:26.077Z,18.02
2024-03-12T15:10:53.525Z,17.35
2024-03-12T15:13:21.634Z,18.65
2024-03-12T15:15:49.331Z,18.48
2024-03-12T15:18:18.314Z,18.80
2024-03-12T15:20:47.479Z,18.88
2024-03-12T15:23:15.674Z,19.83
2024-03-12T15:25:43.092Z,19.13
2024-03-12T15:28:10.635Z,20.83
2024-03-12T15:30:40.195Z,20.08
2024-03-12T15:33:09.185Z,20.02
2024-03-12T15:35:37.521Z,19.90
2024-03-12T15:38:06.160Z,19.95
2024-03-12T15:40:33.788Z,20.38
2024-03-12T15:43:01.892Z,21.80
2024-03-12T15:45:29.434Z,24.08
2024-03-12T15:47:56.648Z,23.63
2024-03-12T15:50:27.490Z,24.83
2024-03-12T15:52:58.181Z,24.52
2024-03-12T15:55:27.159Z,22.73
2024-03-12T15:57:55.790Z,21.70
2024-03-12T16:00:23.570Z,21.70
2024-03-12T16:02:52.303Z,21.50
2024-03-12T16:05:20.153Z,20.88
2024-03-12T16:07:49.051Z,20.38
2024-03-12T16:10:16.677Z,19.75
2024-03-12T16:12:46.458Z,20.05
2024-03-12T16:15:19.057Z,20.27
2024-03-12T16:17:46.216Z,20.10
2024-03-12T16:20:20.197Z,20.20
2024-03-12T16:22:47.754Z,19.77
2024-03-12T16:25:14.967Z,20.48
2024-03-12T16:27:46.370Z,21.73
2024-03-12T16:30:15.720Z,20.52
2024-03-12T16:32:44.472Z,23.48
2024-03-12T16:35:12.108Z,22.88
2024-03-12T16:37:39.434Z,24.60
2024-03-12T16:40:09.320Z,23.88
2024-03-12T16:42:37.662Z,25.50
2024-03-12T16:45:06.719Z,26.73
2024-03-12T16:47:34.128Z,26.80
2024-03-12T16:50:05.663Z,27.33
2024-03-12T16:52:33.355Z,27.77
2024-03-12T16:55:02.089Z,27.40
2024-03-12T16:57:29.873Z,28.08
2024-03-12T16:59:57.647Z,28.65
2024-03-12T17:02:27.501Z,27.98
2024-03-12T17:04:57.541Z,28.50
2024-03-12T17:07:29.217Z,28.45
2024-03-12T17:09:58.489Z,29.48
2024-03-12T17:12:27.401Z,27.80
2024-03-12T17:14:55.312Z,29.35
2024-03-12T17:17:25.866Z,29.55
2024-03-12T17:19:53.709Z,29.35
2024-03-12T17:22:21.363Z,29.63
2024-03-12T17:24:51.944Z,30.08
2024-03-12T17:27:20.306Z,30.45
2024-03-12T17:29:48.737Z,30.33
2024-03-12T17:32:16.880Z,29.70
2024-03-12T17:34:44.719Z,30.90
2024-03-12T17:37:20.323Z,30.65
2024-03-12T17:39:48.004Z,30.13
2024-03-12T17:42:21.722Z,30.15
2024-03-12T17:44:49.684Z,30.15
2024-03-12T17:47:22.031Z,28.77
2024-03-12T17:49:52.839Z,30.42
2024-03-12T17:52:20.512Z,30.65
2024-03-12T17:54:48.224Z,29.75
2024-03-12T17:57:16.016Z,30.90
2024-03-12T17:59:46.579Z,30.83
2024-03-12T18:02:14.797Z,30.02
2024-03-12T18:04:43.474Z,30.30
2024-03-12T18:07:25.761Z,31.23
2024-03-12T18:09:56.629Z,30.83
2024-03-12T18:12:24.456Z,30.70
2024-03-12T18:14:51.660Z,30.20
2024-03-12T18:17:21.820Z,31.02
2024-03-12T18:19:49.064Z,31.02
2024-03-12T18:22:19.900Z,31.63
2024-03-12T18:24:47.271Z,31.67
2024-03-12T18:27:15.006Z,31.60
2024-03-12T18:29:45.996Z,33.10
2024-03-12T18:32:15.617Z,32.00
2024-03-12T18:34:43.855Z,32.22
2024-03-12T18:37:11.086Z,32.75
2024-03-12T18:39:38.470Z,33.15
2024-03-12T18:42:06.930Z,32.65
2024-03-12T18:44:34.163Z,34.22
2024-03-12T18:47:03.011Z,33.63
2024-03-12T18:49:30.508Z,34.42
2024-03-12T18:52:01.444Z,34.25
2024-03-12T18:54:30.580Z,35.75
2024-03-12T18:56:58.046Z,36.17
2024-03-12T18:59:26.425Z,36.25
2024-03-12T19:02:03.116Z,36.20
2024-03-12T19:04:34.041Z,36.50
2024-03-12T19:07:01.897Z,37.95
2024-03-12T19:09:32.255Z,38.60
2024-03-12T19:12:01.592Z,37.38
2024-03-12T19:14:31.383Z,38.83
2024-03-12T19:17:01.933Z,37.75
2024-03-12T19:19:30.677Z,38.25
2024-03-12T19:21:58.618Z,39.75
2024-03-12T19:24:26.186Z,38.70
2024-03-12T19:26:53.411Z,39.42
2024-03-12T19:29:22.566Z,38.85
2024-03-12T19:31:50.602Z,39.28
2024-03-12T19:34:20.818Z,39.63
2024-03-12T19:36:49.142Z,40.50
2024-03-12T19:39:16.661Z,38.90
2024-03-12T19:41:45.977Z,40.15
2024-03-12T19:44:14.057Z,40.50
2024-03-12T19:46:41.914Z,40.97
2024-03-12T19:49:16.043Z,41.47
2024-03-12T19:51:43.696Z,40.53
2024-03-12T19:54:16.894Z,42.30
2024-03-12T19:56:44.052Z,42.33
2024-03-12T19:59:11.235Z,42.00
2024-03-12T20:01:39.105Z,40.70
2024-03-12T20:04:06.474Z,42.30
2024-03-12T20:06:36.253Z,42.05
2024-03-12T20:09:22.633Z,42.78
2024-03-12T20:11:54.026Z,42.78
2024-03-12T20:14:24.869Z,42.28
2024-03-12T20:16:52.427Z,43.30
2024-03-12T20:19:19.883Z,43.42
2024-03-12T20:21:46.986Z,43.28
2024-03-12T20:24:14.399Z,42.95
2024-03-12T20:26:43.407Z,42.40
2024-03-12T20:29:13.047Z,43.72
2024-03-12T20:31:41.471Z,43.28
2024-03-12T20:34:09.740Z,44.00
2024-03-12T20:36:37.161Z,44.30
2024-03-12T20:39:12.451Z,45.40
2024-03-12T20:41:40.159Z,43.83
2024-03-12T20:44:07.358Z,43.40
2024-03-12T20:46:34.826Z,44.25
2024-03-12T20:49:01.977Z,43.88
2024-03-12T20:51:30.494Z,44.67
2024-03-12T20:53:59.658Z,43.75
2024-03-12T20:56:26.941Z,45.00
2024-03-12T20:58:54.096Z,43.20
2024-03-12T21:01:22.371Z,44.05
2024-03-12T21:03:49.954Z,42.08
2024-03-12T21:06:17.150Z,43.47
2024-03-12T21:08:46.909Z,43.13
2024-03-12T21:11:15.729Z,44.33
2024-03-12T21:13:43.068Z,44.30
2024-03-12T21:16:16.482Z,47.60
2024-03-12T21:18:44.369Z,45.85
2024-03-12T21:21:16.239Z,46.92
2024-03-12T21:23:46.049Z,46.85
2024-03-12T21:26:19.593Z,46.83
2024-03-12T21:28:46.864Z,46.63
2024-03-12T21:31:17.650Z,46.60
2024-03-12T21:33:45.739Z,46.88
2024-03-12T21:36:14.677Z,45.60
2024-03-12T21:38:41.904Z,46.22
2024-03-12T21:41:14.146Z,45.40
2024-03-12T21:43:41.282Z,45.17
2024-03-12T21:46:08.466Z,45.60
2024-03-12T21:48:35.730Z,45.60
2024-03-12T21:51:03.140Z,45.75
2024-03-12T21:53:30.240Z,44.85
2024-03-12T21:55:57.545Z,46.22
2024-03-12T21:58:25.962Z,45.78
2024-03-12T22:00:53.758Z,45.97
2024-03-12T22:03:20.904Z,44.83
2024-03-12T22:05:48.076Z,45.00
2024-03-12T22:08:15.444Z,47.10
2024-03-12T22:10:42.637Z,46.45
2024-03-12T22:13:10.809Z,44.75
2024-03-12T22:15:40.981Z,45.15
2024-03-12T22:18:08.180Z,44.95
2024-03-12T22:20:35.804Z,46.97
2024-03-12T22:23:02.857Z,45.42
2024-03-12T22:25:30.747Z,45.42
2024-03-12T22:27:57.975Z,45.58
2024-03-12T22:30:25.412Z,43.90
2024-03-12T22:32:53.071Z,44.85
2024-03-12T22:35:20.416Z,43.95
2024-03-12T22:37:49.407Z,43.72
2024-03-12T22:40:17.928Z,43.30
2024-03-12T22:42:45.305Z,40.55
2024-03-12T22:45:13.247Z,41.72
2024-03-12T22:47:40.988Z,41.70
2024-03-12T22:50:09.798Z,41.05
2024-03-12T22:52:37.697Z,42.25
2024-03-12T22:55:05.764Z,40.70
2024-03-12T22:57:36.930Z,40.33
2024-03-12T23:00:31.345Z,39.08
2024-03-12T23:03:04.436Z,40.63
2024-03-12T23:05:34.930Z,40.72
2024-03-12T23:08:07.141Z,42.28
2024-03-12T23:10:36.505Z,40.78
2024-03-12T23:13:04.940Z,41.63
2024-03-12T23:15:32.688Z,43.65
2024-03-12T23:18:04.004Z,42.42
2024-03-12T23:20:32.234Z,40.03
2024-03-12T23:22:59.337Z,42.13
2024-03-12T23:25:26.682Z,40.85
2024-03-12T23:27:56.270Z,41.97
2024-03-12T23:30:23.387Z,42.38
2024-03-12T23:32:52.823Z,41.90
2024-03-12T23:35:20.096Z,42.47
2024-03-12T23:37:47.208Z,43.85
2024-03-12T23:40:14.296Z,42.42
2024-03-12T23:42:41.773Z,41.33
2024-03-12T23:45:09.986Z,42.85
2024-03-12T23:47:46.129Z,43.45
2024-03-12T23:50:13.459Z,40.45
2024-03-12T23:52:41.278Z,43.45
2024-03-12T23:55:09.940Z,43.47
2024-03-12T23:57:38.209Z,41.40
